If you wish to contribute or participate in the discussions about articles you are invited to join SKYbrary as a registered user

 Actions

Castres-Mazamet Airport

From SKYbrary Wiki

LFCK
Airport
ICAO: LFCK – IATA: DCM
Summary
Name Castres-Mazamet Airport
Region Europe
Territory France FR.gif
Location Lagarrigue, Midi-Pyrenees
Serving Castres
Elevation 240.182 m <br />788 ft <br />788 ft240.182 m <br />
Type medium airport
Coordinates 43° 33' 22.50" N, 2° 17' 21.05" E
Runways
Designator Length Width Surface ROPS
14/32 1825 m5,987.533 ft <br /> 30 m98.425 ft <br /> CON /


METAR
Observation LFCK 150030Z AUTO 15004KT CAVOK 09/08 Q1016
Station Castres-Mazamet
Date/Time 15 May 2021 00:30:00
Wind direction 150°
Wind speed 04 kts
Lowest cloud amount clouds and visibility OK
Temperature 9°C
Dew point 8°C
Humidity 93%
QNH 1016 hPa
Weather condition n/a

Castres – Mazamet Airport is an airport serving Castres and Mazamet and the east of Midi-Pyrénées, France.

Climatology

Temperate oceanic climate (Köppen climate classification Cfb)

Maps

Terrain

Loading map...

Airport Layout

Loading map...


Accidents & Serious Incidents at or in vicinity of LFCK

None on SKYbrary